sensor_id;sensor_type;location;lat;lon;timestamp;P1;durP1;ratioP1;P2;durP2;ratioP2
10191;SDS011;17580;50.850;4.504;2022-08-21T00:01:52;1.60;;;1.47;;
10191;SDS011;17580;50.850;4.504;2022-08-21T00:04:19;2.23;;;1.67;;
10191;SDS011;17580;50.850;4.504;2022-08-21T00:06:47;2.13;;;1.77;;
10191;SDS011;17580;50.850;4.504;2022-08-21T00:09:15;3.83;;;1.90;;
10191;SDS011;17580;50.850;4.504;2022-08-21T00:11:42;1.77;;;1.50;;
10191;SDS011;17580;50.850;4.504;2022-08-21T00:14:09;3.80;;;2.00;;
10191;SDS011;17580;50.850;4.504;2022-08-21T00:16:37;4.77;;;2.23;;
10191;SDS011;17580;50.850;4.504;2022-08-21T00:19:05;5.83;;;1.80;;
10191;SDS011;17580;50.850;4.504;2022-08-21T00:21:33;3.90;;;1.67;;
10191;SDS011;17580;50.850;4.504;2022-08-21T00:24:01;1.80;;;1.43;;
10191;SDS011;17580;50.850;4.504;2022-08-21T00:26:30;2.53;;;1.67;;
10191;SDS011;17580;50.850;4.504;2022-08-21T00:28:57;3.53;;;2.40;;
10191;SDS011;17580;50.850;4.504;2022-08-21T00:31:24;2.33;;;1.63;;
10191;SDS011;17580;50.850;4.504;2022-08-21T00:33:51;3.73;;;2.00;;
10191;SDS011;17580;50.850;4.504;2022-08-21T00:36:18;2.37;;;1.93;;
10191;SDS011;17580;50.850;4.504;2022-08-21T00:38:45;4.50;;;2.20;;
10191;SDS011;17580;50.850;4.504;2022-08-21T00:41:12;5.20;;;1.90;;
10191;SDS011;17580;50.850;4.504;2022-08-21T00:43:40;3.77;;;2.20;;
10191;SDS011;17580;50.850;4.504;2022-08-21T00:46:07;1.70;;;1.40;;
10191;SDS011;17580;50.850;4.504;2022-08-21T00:48:34;2.83;;;1.47;;
10191;SDS011;17580;50.850;4.504;2022-08-21T00:51:10;2.00;;;1.33;;
10191;SDS011;17580;50.850;4.504;2022-08-21T00:53:42;2.80;;;1.90;;
10191;SDS011;17580;50.850;4.504;2022-08-21T00:56:11;3.53;;;1.80;;
10191;SDS011;17580;50.850;4.504;2022-08-21T00:58:39;2.60;;;1.47;;
10191;SDS011;17580;50.850;4.504;2022-08-21T01:01:09;1.90;;;1.23;;
10191;SDS011;17580;50.850;4.504;2022-08-21T01:03:36;3.00;;;1.40;;
10191;SDS011;17580;50.850;4.504;2022-08-21T01:06:03;3.53;;;1.40;;
10191;SDS011;17580;50.850;4.504;2022-08-21T01:08:31;1.70;;;1.60;;
10191;SDS011;17580;50.850;4.504;2022-08-21T01:10:59;2.43;;;1.43;;
10191;SDS011;17580;50.850;4.504;2022-08-21T01:13:28;3.30;;;1.73;;
10191;SDS011;17580;50.850;4.504;2022-08-21T01:15:59;5.33;;;1.70;;
10191;SDS011;17580;50.850;4.504;2022-08-21T01:18:28;2.50;;;1.50;;
10191;SDS011;17580;50.850;4.504;2022-08-21T01:21:01;2.47;;;1.53;;
10191;SDS011;17580;50.850;4.504;2022-08-21T01:23:30;4.33;;;1.87;;
10191;SDS011;17580;50.850;4.504;2022-08-21T01:25:57;1.77;;;1.30;;
10191;SDS011;17580;50.850;4.504;2022-08-21T01:28:24;2.50;;;1.67;;
10191;SDS011;17580;50.850;4.504;2022-08-21T01:30:52;2.10;;;1.80;;
10191;SDS011;17580;50.850;4.504;2022-08-21T01:33:21;3.93;;;2.13;;
10191;SDS011;17580;50.850;4.504;2022-08-21T01:35:50;2.67;;;1.53;;
10191;SDS011;17580;50.850;4.504;2022-08-21T01:38:18;3.73;;;1.83;;
10191;SDS011;17580;50.850;4.504;2022-08-21T01:40:46;3.43;;;1.33;;
10191;SDS011;17580;50.850;4.504;2022-08-21T01:43:13;3.73;;;1.70;;
10191;SDS011;17580;50.850;4.504;2022-08-21T01:45:39;2.20;;;1.70;;
10191;SDS011;17580;50.850;4.504;2022-08-21T01:48:06;3.00;;;1.97;;
10191;SDS011;17580;50.850;4.504;2022-08-21T01:50:33;3.50;;;1.83;;
10191;SDS011;17580;50.850;4.504;2022-08-21T01:53:02;1.53;;;1.37;;
10191;SDS011;17580;50.850;4.504;2022-08-21T01:55:31;1.80;;;1.70;;
10191;SDS011;17580;50.850;4.504;2022-08-21T01:57:58;1.60;;;1.50;;
10191;SDS011;17580;50.850;4.504;2022-08-21T02:00:26;4.37;;;2.10;;
10191;SDS011;17580;50.850;4.504;2022-08-21T02:02:53;2.17;;;1.80;;
10191;SDS011;17580;50.850;4.504;2022-08-21T02:05:20;2.13;;;1.57;;
10191;SDS011;17580;50.850;4.504;2022-08-21T02:07:49;4.83;;;1.73;;
10191;SDS011;17580;50.850;4.504;2022-08-21T02:10:18;3.37;;;2.07;;
10191;SDS011;17580;50.850;4.504;2022-08-21T02:12:52;2.57;;;1.43;;
10191;SDS011;17580;50.850;4.504;2022-08-21T02:15:20;1.90;;;1.60;;
10191;SDS011;17580;50.850;4.504;2022-08-21T02:17:49;1.50;;;1.40;;
10191;SDS011;17580;50.850;4.504;2022-08-21T02:20:17;2.20;;;1.50;;
10191;SDS011;17580;50.850;4.504;2022-08-21T02:22:46;4.67;;;1.83;;
10191;SDS011;17580;50.850;4.504;2022-08-21T02:25:14;2.57;;;1.60;;
10191;SDS011;17580;50.850;4.504;2022-08-21T02:27:42;2.67;;;2.03;;
10191;SDS011;17580;50.850;4.504;2022-08-21T02:30:14;3.60;;;2.13;;
10191;SDS011;17580;50.850;4.504;2022-08-21T02:32:43;1.70;;;1.30;;
10191;SDS011;17580;50.850;4.504;2022-08-21T02:35:10;3.53;;;1.67;;
10191;SDS011;17580;50.850;4.504;2022-08-21T02:37:44;2.70;;;1.70;;
10191;SDS011;17580;50.850;4.504;2022-08-21T02:40:13;1.57;;;1.30;;
10191;SDS011;17580;50.850;4.504;2022-08-21T02:42:42;3.13;;;1.60;;
10191;SDS011;17580;50.850;4.504;2022-08-21T02:45:09;2.30;;;1.67;;
10191;SDS011;17580;50.850;4.504;2022-08-21T02:47:38;2.93;;;1.77;;
10191;SDS011;17580;50.850;4.504;2022-08-21T02:50:06;3.23;;;1.33;;
10191;SDS011;17580;50.850;4.504;2022-08-21T02:52:33;3.80;;;1.93;;
10191;SDS011;17580;50.850;4.504;2022-08-21T02:55:02;1.53;;;1.30;;
10191;SDS011;17580;50.850;4.504;2022-08-21T02:57:29;1.60;;;1.50;;
10191;SDS011;17580;50.850;4.504;2022-08-21T02:59:57;2.03;;;1.60;;
10191;SDS011;17580;50.850;4.504;2022-08-21T03:02:25;2.60;;;1.40;;
10191;SDS011;17580;50.850;4.504;2022-08-21T03:04:54;3.27;;;1.47;;
10191;SDS011;17580;50.850;4.504;2022-08-21T03:07:21;1.70;;;1.30;;
10191;SDS011;17580;50.850;4.504;2022-08-21T03:09:48;2.47;;;1.30;;
10191;SDS011;17580;50.850;4.504;2022-08-21T03:12:15;1.93;;;1.40;;
10191;SDS011;17580;50.850;4.504;2022-08-21T03:14:42;1.53;;;1.40;;
10191;SDS011;17580;50.850;4.504;2022-08-21T03:17:08;2.23;;;1.73;;
10191;SDS011;17580;50.850;4.504;2022-08-21T03:19:35;1.93;;;1.40;;
10191;SDS011;17580;50.850;4.504;2022-08-21T03:22:04;2.00;;;1.40;;
10191;SDS011;17580;50.850;4.504;2022-08-21T03:24:31;2.10;;;1.47;;
10191;SDS011;17580;50.850;4.504;2022-08-21T03:26:58;2.87;;;1.70;;
10191;SDS011;17580;50.850;4.504;2022-08-21T03:29:25;1.37;;;1.27;;
10191;SDS011;17580;50.850;4.504;2022-08-21T03:31:53;2.17;;;1.50;;
10191;SDS011;17580;50.850;4.504;2022-08-21T03:34:20;1.33;;;1.23;;
10191;SDS011;17580;50.850;4.504;2022-08-21T03:36:47;1.93;;;1.40;;
10191;SDS011;17580;50.850;4.504;2022-08-21T03:39:16;2.27;;;1.47;;
10191;SDS011;17580;50.850;4.504;2022-08-21T03:41:43;1.80;;;1.37;;
10191;SDS011;17580;50.850;4.504;2022-08-21T03:44:10;2.23;;;1.43;;
10191;SDS011;17580;50.850;4.504;2022-08-21T03:46:37;2.27;;;1.10;;
10191;SDS011;17580;50.850;4.504;2022-08-21T03:49:05;1.97;;;1.30;;
10191;SDS011;17580;50.850;4.504;2022-08-21T03:51:32;3.87;;;1.47;;
10191;SDS011;17580;50.850;4.504;2022-08-21T03:54:00;2.10;;;1.67;;
10191;SDS011;17580;50.850;4.504;2022-08-21T03:56:29;2.20;;;1.43;;
10191;SDS011;17580;50.850;4.504;2022-08-21T03:58:56;1.83;;;1.40;;
10191;SDS011;17580;50.850;4.504;2022-08-21T04:01:23;1.57;;;1.37;;
10191;SDS011;17580;50.850;4.504;2022-08-21T04:03:50;1.10;;;1.10;;
10191;SDS011;17580;50.850;4.504;2022-08-21T04:06:17;2.80;;;1.57;;
10191;SDS011;17580;50.850;4.504;2022-08-21T04:08:44;1.20;;;1.10;;
10191;SDS011;17580;50.850;4.504;2022-08-21T04:11:11;3.40;;;1.40;;
10191;SDS011;17580;50.850;4.504;2022-08-21T04:13:41;4.90;;;1.83;;
10191;SDS011;17580;50.850;4.504;2022-08-21T04:16:08;2.17;;;1.27;;
10191;SDS011;17580;50.850;4.504;2022-08-21T04:18:35;3.07;;;2.20;;
10191;SDS011;17580;50.850;4.504;2022-08-21T04:21:02;3.10;;;1.00;;
10191;SDS011;17580;50.850;4.504;2022-08-21T04:23:30;2.67;;;1.53;;
10191;SDS011;17580;50.850;4.504;2022-08-21T04:25:57;1.80;;;1.23;;
10191;SDS011;17580;50.850;4.504;2022-08-21T04:28:26;1.90;;;1.10;;
10191;SDS011;17580;50.850;4.504;2022-08-21T04:30:55;1.40;;;1.17;;
10191;SDS011;17580;50.850;4.504;2022-08-21T04:33:22;1.50;;;1.33;;
10191;SDS011;17580;50.850;4.504;2022-08-21T04:35:50;2.40;;;1.50;;
10191;SDS011;17580;50.850;4.504;2022-08-21T04:38:17;1.63;;;1.50;;
10191;SDS011;17580;50.850;4.504;2022-08-21T04:40:45;3.03;;;1.10;;
10191;SDS011;17580;50.850;4.504;2022-08-21T04:43:13;1.30;;;1.20;;
10191;SDS011;17580;50.850;4.504;2022-08-21T04:45:41;1.10;;;1.10;;
10191;SDS011;17580;50.850;4.504;2022-08-21T04:48:11;1.50;;;1.10;;
10191;SDS011;17580;50.850;4.504;2022-08-21T04:50:41;2.27;;;1.10;;
10191;SDS011;17580;50.850;4.504;2022-08-21T04:53:13;2.87;;;1.30;;
10191;SDS011;17580;50.850;4.504;2022-08-21T04:55:44;2.70;;;1.13;;
10191;SDS011;17580;50.850;4.504;2022-08-21T04:58:12;2.93;;;1.40;;
10191;SDS011;17580;50.850;4.504;2022-08-21T05:00:42;1.40;;;1.23;;
10191;SDS011;17580;50.850;4.504;2022-08-21T05:03:12;2.53;;;1.50;;
10191;SDS011;17580;50.850;4.504;2022-08-21T05:05:42;1.97;;;1.53;;
10191;SDS011;17580;50.850;4.504;2022-08-21T05:08:11;3.13;;;1.50;;
10191;SDS011;17580;50.850;4.504;2022-08-21T05:10:40;1.10;;;1.10;;
10191;SDS011;17580;50.850;4.504;2022-08-21T05:13:08;1.83;;;1.23;;
10191;SDS011;17580;50.850;4.504;2022-08-21T05:15:35;1.97;;;1.20;;
10191;SDS011;17580;50.850;4.504;2022-08-21T05:18:02;3.40;;;1.67;;
10191;SDS011;17580;50.850;4.504;2022-08-21T05:20:31;2.90;;;1.73;;
10191;SDS011;17580;50.850;4.504;2022-08-21T05:22:59;3.87;;;1.27;;
10191;SDS011;17580;50.850;4.504;2022-08-21T05:25:26;3.30;;;1.70;;
10191;SDS011;17580;50.850;4.504;2022-08-21T05:27:53;1.93;;;1.13;;
10191;SDS011;17580;50.850;4.504;2022-08-21T05:30:21;2.20;;;1.23;;
10191;SDS011;17580;50.850;4.504;2022-08-21T05:32:48;1.50;;;1.40;;
10191;SDS011;17580;50.850;4.504;2022-08-21T05:35:15;1.77;;;1.40;;
10191;SDS011;17580;50.850;4.504;2022-08-21T05:37:43;1.50;;;1.40;;
10191;SDS011;17580;50.850;4.504;2022-08-21T05:40:11;4.23;;;1.70;;
10191;SDS011;17580;50.850;4.504;2022-08-21T05:42:39;2.90;;;1.17;;
10191;SDS011;17580;50.850;4.504;2022-08-21T05:45:06;1.70;;;1.60;;
10191;SDS011;17580;50.850;4.504;2022-08-21T05:47:33;2.70;;;1.53;;
10191;SDS011;17580;50.850;4.504;2022-08-21T05:50:00;3.07;;;1.47;;
10191;SDS011;17580;50.850;4.504;2022-08-21T05:52:27;2.43;;;1.93;;
10191;SDS011;17580;50.850;4.504;2022-08-21T05:54:55;4.87;;;1.70;;
10191;SDS011;17580;50.850;4.504;2022-08-21T05:57:22;4.37;;;1.20;;
10191;SDS011;17580;50.850;4.504;2022-08-21T05:59:50;3.87;;;1.40;;
10191;SDS011;17580;50.850;4.504;2022-08-21T06:02:17;2.27;;;1.20;;
10191;SDS011;17580;50.850;4.504;2022-08-21T06:04:45;3.43;;;1.90;;
10191;SDS011;17580;50.850;4.504;2022-08-21T06:07:12;2.60;;;1.73;;
10191;SDS011;17580;50.850;4.504;2022-08-21T06:09:39;5.67;;;1.60;;
10191;SDS011;17580;50.850;4.504;2022-08-21T06:12:09;5.47;;;1.67;;
10191;SDS011;17580;50.850;4.504;2022-08-21T06:14:38;2.93;;;1.70;;
10191;SDS011;17580;50.850;4.504;2022-08-21T06:17:08;2.73;;;1.50;;
10191;SDS011;17580;50.850;4.504;2022-08-21T06:19:37;2.43;;;1.60;;
10191;SDS011;17580;50.850;4.504;2022-08-21T06:22:05;4.97;;;2.03;;
10191;SDS011;17580;50.850;4.504;2022-08-21T06:24:32;2.83;;;1.67;;
10191;SDS011;17580;50.850;4.504;2022-08-21T06:27:03;1.80;;;1.30;;
10191;SDS011;17580;50.850;4.504;2022-08-21T06:29:32;1.43;;;1.20;;
10191;SDS011;17580;50.850;4.504;2022-08-21T06:32:00;2.83;;;1.63;;
10191;SDS011;17580;50.850;4.504;2022-08-21T06:34:27;3.13;;;1.30;;
10191;SDS011;17580;50.850;4.504;2022-08-21T06:36:54;3.47;;;1.53;;
10191;SDS011;17580;50.850;4.504;2022-08-21T06:39:21;2.70;;;1.77;;
10191;SDS011;17580;50.850;4.504;2022-08-21T06:41:48;2.70;;;1.80;;
10191;SDS011;17580;50.850;4.504;2022-08-21T06:44:15;6.63;;;1.57;;
10191;SDS011;17580;50.850;4.504;2022-08-21T06:46:44;3.30;;;1.80;;
10191;SDS011;17580;50.850;4.504;2022-08-21T06:49:11;2.20;;;1.37;;
10191;SDS011;17580;50.850;4.504;2022-08-21T06:51:39;2.80;;;1.47;;
10191;SDS011;17580;50.850;4.504;2022-08-21T06:54:07;4.40;;;1.80;;
10191;SDS011;17580;50.850;4.504;2022-08-21T06:56:35;2.83;;;1.30;;
10191;SDS011;17580;50.850;4.504;2022-08-21T06:59:03;4.10;;;1.60;;
10191;SDS011;17580;50.850;4.504;2022-08-21T07:01:30;7.73;;;2.00;;
10191;SDS011;17580;50.850;4.504;2022-08-21T07:03:58;3.57;;;1.87;;
10191;SDS011;17580;50.850;4.504;2022-08-21T07:06:25;3.80;;;1.90;;
10191;SDS011;17580;50.850;4.504;2022-08-21T07:08:52;2.33;;;1.47;;
10191;SDS011;17580;50.850;4.504;2022-08-21T07:11:20;3.80;;;1.63;;
10191;SDS011;17580;50.850;4.504;2022-08-21T07:13:48;3.83;;;1.30;;
10191;SDS011;17580;50.850;4.504;2022-08-21T07:16:17;3.57;;;1.40;;
10191;SDS011;17580;50.850;4.504;2022-08-21T07:18:44;2.03;;;1.80;;
10191;SDS011;17580;50.850;4.504;2022-08-21T07:21:12;3.17;;;1.30;;
10191;SDS011;17580;50.850;4.504;2022-08-21T07:23:40;8.23;;;2.13;;
10191;SDS011;17580;50.850;4.504;2022-08-21T07:26:09;4.63;;;1.93;;
10191;SDS011;17580;50.850;4.504;2022-08-21T07:28:37;4.77;;;1.83;;
10191;SDS011;17580;50.850;4.504;2022-08-21T07:31:04;4.30;;;1.87;;
10191;SDS011;17580;50.850;4.504;2022-08-21T07:33:33;2.47;;;1.30;;
10191;SDS011;17580;50.850;4.504;2022-08-21T07:36:00;3.00;;;1.53;;
10191;SDS011;17580;50.850;4.504;2022-08-21T07:38:29;3.50;;;1.67;;
10191;SDS011;17580;50.850;4.504;2022-08-21T07:40:56;3.27;;;1.53;;
10191;SDS011;17580;50.850;4.504;2022-08-21T07:43:25;4.67;;;2.00;;
10191;SDS011;17580;50.850;4.504;2022-08-21T07:45:52;2.40;;;1.07;;
10191;SDS011;17580;50.850;4.504;2022-08-21T07:48:19;1.93;;;1.40;;
10191;SDS011;17580;50.850;4.504;2022-08-21T07:50:47;2.97;;;1.53;;
10191;SDS011;17580;50.850;4.504;2022-08-21T07:53:14;3.83;;;1.97;;
10191;SDS011;17580;50.850;4.504;2022-08-21T07:55:42;5.40;;;2.13;;
10191;SDS011;17580;50.850;4.504;2022-08-21T07:58:09;4.23;;;2.00;;
10191;SDS011;17580;50.850;4.504;2022-08-21T08:00:36;1.93;;;1.33;;
10191;SDS011;17580;50.850;4.504;2022-08-21T08:03:03;2.90;;;1.80;;
10191;SDS011;17580;50.850;4.504;2022-08-21T08:05:30;2.30;;;1.90;;
10191;SDS011;17580;50.850;4.504;2022-08-21T08:08:00;4.07;;;1.73;;
10191;SDS011;17580;50.850;4.504;2022-08-21T08:10:27;3.93;;;1.60;;
10191;SDS011;17580;50.850;4.504;2022-08-21T08:12:55;2.63;;;1.40;;
10191;SDS011;17580;50.850;4.504;2022-08-21T08:15:23;3.87;;;1.70;;
10191;SDS011;17580;50.850;4.504;2022-08-21T08:17:51;2.73;;;1.37;;
10191;SDS011;17580;50.850;4.504;2022-08-21T08:20:20;3.80;;;1.40;;
10191;SDS011;17580;50.850;4.504;2022-08-21T08:22:47;4.00;;;2.03;;
10191;SDS011;17580;50.850;4.504;2022-08-21T08:25:16;2.60;;;1.73;;
10191;SDS011;17580;50.850;4.504;2022-08-21T08:27:43;7.53;;;1.90;;
10191;SDS011;17580;50.850;4.504;2022-08-21T08:30:12;6.77;;;2.53;;
10191;SDS011;17580;50.850;4.504;2022-08-21T08:32:41;4.27;;;1.90;;
10191;SDS011;17580;50.850;4.504;2022-08-21T08:35:08;3.40;;;1.80;;
10191;SDS011;17580;50.850;4.504;2022-08-21T08:37:36;2.83;;;2.03;;
10191;SDS011;17580;50.850;4.504;2022-08-21T08:40:05;4.93;;;1.93;;
10191;SDS011;17580;50.850;4.504;2022-08-21T08:42:36;3.37;;;1.80;;
10191;SDS011;17580;50.850;4.504;2022-08-21T08:45:04;2.97;;;1.47;;
10191;SDS011;17580;50.850;4.504;2022-08-21T08:47:37;3.40;;;1.77;;
10191;SDS011;17580;50.850;4.504;2022-08-21T08:50:07;4.67;;;1.63;;
10191;SDS011;17580;50.850;4.504;2022-08-21T08:52:40;6.27;;;2.17;;
10191;SDS011;17580;50.850;4.504;2022-08-21T08:55:12;3.83;;;1.83;;
10191;SDS011;17580;50.850;4.504;2022-08-21T08:57:42;3.87;;;1.33;;
10191;SDS011;17580;50.850;4.504;2022-08-21T09:00:12;3.67;;;1.80;;
10191;SDS011;17580;50.850;4.504;2022-08-21T09:02:43;2.90;;;1.93;;
10191;SDS011;17580;50.850;4.504;2022-08-21T09:05:15;5.23;;;2.10;;
10191;SDS011;17580;50.850;4.504;2022-08-21T09:07:52;6.13;;;2.47;;
10191;SDS011;17580;50.850;4.504;2022-08-21T09:10:43;4.50;;;2.67;;
10191;SDS011;17580;50.850;4.504;2022-08-21T09:13:21;3.93;;;1.80;;
10191;SDS011;17580;50.850;4.504;2022-08-21T09:15:58;3.80;;;1.97;;
10191;SDS011;17580;50.850;4.504;2022-08-21T09:18:35;2.63;;;2.00;;
10191;SDS011;17580;50.850;4.504;2022-08-21T09:21:11;4.10;;;1.87;;
10191;SDS011;17580;50.850;4.504;2022-08-21T09:23:47;4.37;;;2.17;;
10191;SDS011;17580;50.850;4.504;2022-08-21T09:26:19;2.93;;;2.10;;
10191;SDS011;17580;50.850;4.504;2022-08-21T09:28:50;8.13;;;2.03;;
10191;SDS011;17580;50.850;4.504;2022-08-21T09:31:21;5.00;;;1.90;;
10191;SDS011;17580;50.850;4.504;2022-08-21T09:33:56;4.60;;;2.30;;
10191;SDS011;17580;50.850;4.504;2022-08-21T09:36:24;2.83;;;1.63;;
10191;SDS011;17580;50.850;4.504;2022-08-21T09:38:56;1.53;;;1.43;;
10191;SDS011;17580;50.850;4.504;2022-08-21T09:41:27;2.73;;;1.80;;
10191;SDS011;17580;50.850;4.504;2022-08-21T09:43:56;4.00;;;2.00;;
10191;SDS011;17580;50.850;4.504;2022-08-21T09:46:24;4.83;;;2.00;;
10191;SDS011;17580;50.850;4.504;2022-08-21T09:48:55;4.73;;;2.00;;
10191;SDS011;17580;50.850;4.504;2022-08-21T09:51:24;3.90;;;1.60;;
10191;SDS011;17580;50.850;4.504;2022-08-21T09:53:55;2.27;;;1.57;;
10191;SDS011;17580;50.850;4.504;2022-08-21T09:56:28;3.50;;;2.07;;
10191;SDS011;17580;50.850;4.504;2022-08-21T09:59:16;2.87;;;2.00;;
10191;SDS011;17580;50.850;4.504;2022-08-21T10:01:51;4.07;;;2.00;;
10191;SDS011;17580;50.850;4.504;2022-08-21T10:04:22;3.43;;;1.50;;
10191;SDS011;17580;50.850;4.504;2022-08-21T10:06:53;2.87;;;1.60;;
10191;SDS011;17580;50.850;4.504;2022-08-21T10:09:20;7.63;;;1.60;;
10191;SDS011;17580;50.850;4.504;2022-08-21T10:12:06;5.23;;;1.90;;
10191;SDS011;17580;50.850;4.504;2022-08-21T10:14:44;4.80;;;2.33;;
10191;SDS011;17580;50.850;4.504;2022-08-21T10:17:17;3.77;;;2.10;;
10191;SDS011;17580;50.850;4.504;2022-08-21T10:19:56;4.77;;;2.23;;
10191;SDS011;17580;50.850;4.504;2022-08-21T10:22:32;4.20;;;1.77;;
10191;SDS011;17580;50.850;4.504;2022-08-21T10:25:08;4.40;;;2.03;;
10191;SDS011;17580;50.850;4.504;2022-08-21T10:27:43;5.70;;;2.40;;
10191;SDS011;17580;50.850;4.504;2022-08-21T10:30:32;3.90;;;2.50;;
10191;SDS011;17580;50.850;4.504;2022-08-21T10:33:11;4.57;;;2.30;;
10191;SDS011;17580;50.850;4.504;2022-08-21T10:35:49;3.70;;;2.27;;
10191;SDS011;17580;50.850;4.504;2022-08-21T10:38:37;4.03;;;2.27;;
10191;SDS011;17580;50.850;4.504;2022-08-21T10:41:32;5.57;;;2.47;;
10191;SDS011;17580;50.850;4.504;2022-08-21T10:44:09;4.37;;;2.30;;
10191;SDS011;17580;50.850;4.504;2022-08-21T10:46:48;4.00;;;2.40;;
10191;SDS011;17580;50.850;4.504;2022-08-21T10:49:22;5.47;;;2.73;;
10191;SDS011;17580;50.850;4.504;2022-08-21T10:52:00;3.73;;;2.33;;
10191;SDS011;17580;50.850;4.504;2022-08-21T10:54:38;6.43;;;2.50;;
10191;SDS011;17580;50.850;4.504;2022-08-21T10:57:21;5.70;;;2.40;;
10191;SDS011;17580;50.850;4.504;2022-08-21T10:59:54;4.90;;;2.40;;
10191;SDS011;17580;50.850;4.504;2022-08-21T11:02:26;2.83;;;1.70;;
10191;SDS011;17580;50.850;4.504;2022-08-21T11:04:59;6.33;;;2.50;;
10191;SDS011;17580;50.850;4.504;2022-08-21T11:07:32;3.80;;;2.40;;
10191;SDS011;17580;50.850;4.504;2022-08-21T11:10:05;5.57;;;2.40;;
10191;SDS011;17580;50.850;4.504;2022-08-21T11:12:40;2.87;;;2.17;;
10191;SDS011;17580;50.850;4.504;2022-08-21T11:15:14;5.47;;;2.80;;
10191;SDS011;17580;50.850;4.504;2022-08-21T11:17:52;3.03;;;2.53;;
10191;SDS011;17580;50.850;4.504;2022-08-21T11:20:28;6.30;;;2.40;;
10191;SDS011;17580;50.850;4.504;2022-08-21T11:23:05;4.70;;;2.17;;
10191;SDS011;17580;50.850;4.504;2022-08-21T11:25:37;5.20;;;2.10;;
10191;SDS011;17580;50.850;4.504;2022-08-21T11:28:08;6.83;;;2.27;;
10191;SDS011;17580;50.850;4.504;2022-08-21T11:30:40;4.23;;;2.33;;
10191;SDS011;17580;50.850;4.504;2022-08-21T11:33:20;3.43;;;1.93;;
10191;SDS011;17580;50.850;4.504;2022-08-21T11:35:58;4.93;;;2.30;;
10191;SDS011;17580;50.850;4.504;2022-08-21T11:38:35;4.13;;;1.90;;
10191;SDS011;17580;50.850;4.504;2022-08-21T11:41:11;4.10;;;2.00;;
10191;SDS011;17580;50.850;4.504;2022-08-21T11:43:49;3.80;;;2.13;;
10191;SDS011;17580;50.850;4.504;2022-08-21T11:46:26;6.57;;;2.40;;
10191;SDS011;17580;50.850;4.504;2022-08-21T11:49:02;6.20;;;2.20;;
10191;SDS011;17580;50.850;4.504;2022-08-21T11:51:40;4.63;;;2.13;;
10191;SDS011;17580;50.850;4.504;2022-08-21T11:54:16;4.97;;;2.40;;
10191;SDS011;17580;50.850;4.504;2022-08-21T11:56:51;4.80;;;2.50;;
10191;SDS011;17580;50.850;4.504;2022-08-21T11:59:23;4.37;;;2.37;;
10191;SDS011;17580;50.850;4.504;2022-08-21T12:01:53;3.93;;;2.17;;
10191;SDS011;17580;50.850;4.504;2022-08-21T12:04:22;3.40;;;2.00;;
10191;SDS011;17580;50.850;4.504;2022-08-21T12:06:54;4.80;;;2.30;;
10191;SDS011;17580;50.850;4.504;2022-08-21T12:09:30;4.10;;;2.50;;
10191;SDS011;17580;50.850;4.504;2022-08-21T12:12:01;3.70;;;2.13;;
10191;SDS011;17580;50.850;4.504;2022-08-21T12:14:37;5.20;;;2.17;;
10191;SDS011;17580;50.850;4.504;2022-08-21T12:17:08;6.20;;;2.33;;
10191;SDS011;17580;50.850;4.504;2022-08-21T12:19:44;4.67;;;2.17;;
10191;SDS011;17580;50.850;4.504;2022-08-21T12:22:12;3.90;;;2.37;;
10191;SDS011;17580;50.850;4.504;2022-08-21T12:24:42;4.57;;;2.40;;
10191;SDS011;17580;50.850;4.504;2022-08-21T12:27:21;6.17;;;2.80;;
10191;SDS011;17580;50.850;4.504;2022-08-21T12:29:54;3.47;;;2.20;;
10191;SDS011;17580;50.850;4.504;2022-08-21T12:32:26;2.90;;;1.93;;
10191;SDS011;17580;50.850;4.504;2022-08-21T12:34:57;6.97;;;2.27;;
10191;SDS011;17580;50.850;4.504;2022-08-21T12:37:34;3.33;;;2.13;;
10191;SDS011;17580;50.850;4.504;2022-08-21T12:40:13;3.30;;;1.92;;
10191;SDS011;17580;50.850;4.504;2022-08-21T12:42:47;2.75;;;2.00;;
10191;SDS011;17580;50.850;4.504;2022-08-21T12:45:18;4.33;;;2.23;;
10191;SDS011;17580;50.850;4.504;2022-08-21T12:47:50;3.17;;;1.87;;
10191;SDS011;17580;50.850;4.504;2022-08-21T12:50:24;5.27;;;2.50;;
10191;SDS011;17580;50.850;4.504;2022-08-21T12:53:02;5.63;;;2.27;;
10191;SDS011;17580;50.850;4.504;2022-08-21T12:55:35;2.60;;;2.07;;
10191;SDS011;17580;50.850;4.504;2022-08-21T12:58:16;3.20;;;1.90;;
10191;SDS011;17580;50.850;4.504;2022-08-21T13:00:47;5.47;;;2.33;;
10191;SDS011;17580;50.850;4.504;2022-08-21T13:03:16;6.37;;;2.40;;
10191;SDS011;17580;50.850;4.504;2022-08-21T13:05:43;2.77;;;1.90;;
10191;SDS011;17580;50.850;4.504;2022-08-21T13:08:11;6.23;;;2.10;;
10191;SDS011;17580;50.850;4.504;2022-08-21T13:10:41;4.17;;;2.20;;
10191;SDS011;17580;50.850;4.504;2022-08-21T13:13:11;3.07;;;2.03;;
10191;SDS011;17580;50.850;4.504;2022-08-21T13:15:43;2.43;;;1.83;;
10191;SDS011;17580;50.850;4.504;2022-08-21T13:18:19;2.23;;;1.40;;
10191;SDS011;17580;50.850;4.504;2022-08-21T13:20:47;6.20;;;2.40;;
10191;SDS011;17580;50.850;4.504;2022-08-21T13:23:18;2.27;;;2.07;;
10191;SDS011;17580;50.850;4.504;2022-08-21T13:25:50;3.10;;;1.83;;
10191;SDS011;17580;50.850;4.504;2022-08-21T13:28:17;2.47;;;1.80;;
10191;SDS011;17580;50.850;4.504;2022-08-21T13:30:46;5.27;;;2.33;;
10191;SDS011;17580;50.850;4.504;2022-08-21T13:33:16;3.40;;;1.60;;
10191;SDS011;17580;50.850;4.504;2022-08-21T13:35:48;5.33;;;2.10;;
10191;SDS011;17580;50.850;4.504;2022-08-21T13:38:16;5.87;;;2.30;;
10191;SDS011;17580;50.850;4.504;2022-08-21T13:40:48;4.67;;;1.83;;
10191;SDS011;17580;50.850;4.504;2022-08-21T13:43:19;3.57;;;1.53;;
10191;SDS011;17580;50.850;4.504;2022-08-21T13:45:52;3.80;;;2.10;;
10191;SDS011;17580;50.850;4.504;2022-08-21T13:48:21;3.67;;;2.33;;
10191;SDS011;17580;50.850;4.504;2022-08-21T13:50:51;6.33;;;2.17;;
10191;SDS011;17580;50.850;4.504;2022-08-21T13:53:20;5.63;;;2.07;;
10191;SDS011;17580;50.850;4.504;2022-08-21T13:55:49;3.33;;;2.20;;
10191;SDS011;17580;50.850;4.504;2022-08-21T13:58:25;3.80;;;1.80;;
10191;SDS011;17580;50.850;4.504;2022-08-21T14:00:53;2.30;;;2.00;;
10191;SDS011;17580;50.850;4.504;2022-08-21T14:03:32;4.57;;;2.13;;
10191;SDS011;17580;50.850;4.504;2022-08-21T14:06:01;2.33;;;2.00;;
10191;SDS011;17580;50.850;4.504;2022-08-21T14:08:31;3.80;;;2.10;;
10191;SDS011;17580;50.850;4.504;2022-08-21T14:11:02;4.33;;;1.87;;
10191;SDS011;17580;50.850;4.504;2022-08-21T14:13:35;4.37;;;1.87;;
10191;SDS011;17580;50.850;4.504;2022-08-21T14:16:10;3.33;;;1.93;;
10191;SDS011;17580;50.850;4.504;2022-08-21T14:18:44;3.33;;;2.20;;
10191;SDS011;17580;50.850;4.504;2022-08-21T14:21:24;3.83;;;2.10;;
10191;SDS011;17580;50.850;4.504;2022-08-21T14:24:01;4.10;;;1.90;;
10191;SDS011;17580;50.850;4.504;2022-08-21T14:26:30;4.87;;;2.17;;
10191;SDS011;17580;50.850;4.504;2022-08-21T14:29:00;7.10;;;2.53;;
10191;SDS011;17580;50.850;4.504;2022-08-21T14:31:28;2.93;;;1.93;;
10191;SDS011;17580;50.850;4.504;2022-08-21T14:33:57;4.13;;;2.17;;
10191;SDS011;17580;50.850;4.504;2022-08-21T14:36:25;3.40;;;2.00;;
10191;SDS011;17580;50.850;4.504;2022-08-21T14:38:52;4.37;;;2.13;;
10191;SDS011;17580;50.850;4.504;2022-08-21T14:41:21;3.50;;;2.00;;
10191;SDS011;17580;50.850;4.504;2022-08-21T14:43:50;4.37;;;2.53;;
10191;SDS011;17580;50.850;4.504;2022-08-21T14:46:22;3.37;;;2.00;;
10191;SDS011;17580;50.850;4.504;2022-08-21T14:48:51;4.43;;;2.17;;
10191;SDS011;17580;50.850;4.504;2022-08-21T14:51:18;4.50;;;2.60;;
10191;SDS011;17580;50.850;4.504;2022-08-21T14:53:45;4.00;;;2.17;;
10191;SDS011;17580;50.850;4.504;2022-08-21T14:56:12;2.63;;;2.10;;
10191;SDS011;17580;50.850;4.504;2022-08-21T14:58:41;4.20;;;1.90;;
10191;SDS011;17580;50.850;4.504;2022-08-21T15:01:11;3.97;;;2.00;;
10191;SDS011;17580;50.850;4.504;2022-08-21T15:03:41;5.90;;;2.40;;
10191;SDS011;17580;50.850;4.504;2022-08-21T15:06:08;3.03;;;1.63;;